CUB990 MUHA-MUHG
Flight info
| Callsign | CUB990 |
|---|---|
| Flight time | N/A |
| Altitude | 23000 |
| Route | MUHA/24 DCT DUTAN XOPLI J2 ANETU BEMUV7 |
| Aircraft | AN24/M-SDFGR/S |
Departure
| Time | N/A |
|---|---|
| Airport | José Martí International Airport (MUHA) |
Arrival
| Time | 2026-05-03 20:23 |
|---|---|
| Airport | Frank Pais International Airport (MUHG) |
| Time | Latitude | Longitude | Altitude | Speed | Heading |
|---|---|---|---|---|---|
| 2026-05-03 20:15 | 20.65830 | -76.46735 | 4529 ft | 221 kts | 150° |
| 2026-05-03 20:15 | 20.64391 | -76.46283 | 4256 ft | 221 kts | 181° |
| 2026-05-03 20:15 | 20.62946 | -76.46802 | 3944 ft | 222 kts | 217° |
| 2026-05-03 20:15 | 20.62054 | -76.48120 | 3628 ft | 224 kts | 252° |
| 2026-05-03 20:16 | 20.62028 | -76.49760 | 3317 ft | 224 kts | 286° |
| 2026-05-03 20:16 | 20.62872 | -76.51124 | 3031 ft | 224 kts | 321° |
| 2026-05-03 20:16 | 20.64286 | -76.51740 | 2768 ft | 222 kts | 355° |
| 2026-05-03 20:16 | 20.65779 | -76.51569 | 2594 ft | 217 kts | 19° |
| 2026-05-03 20:17 | 20.66921 | -76.50623 | 2613 ft | 202 kts | 58° |
| 2026-05-03 20:17 | 20.67265 | -76.49250 | 2706 ft | 185 kts | 85° |
| 2026-05-03 20:17 | 20.67333 | -76.47955 | 2690 ft | 174 kts | 89° |
| 2026-05-03 20:17 | 20.67336 | -76.46706 | 2662 ft | 156 kts | 86° |
| 2026-05-03 20:18 | 20.67541 | -76.45621 | 2640 ft | 136 kts | 71° |
| 2026-05-03 20:18 | 20.67856 | -76.44747 | 2617 ft | 122 kts | 72° |
| 2026-05-03 20:18 | 20.68012 | -76.43881 | 2470 ft | 121 kts | 83° |
| 2026-05-03 20:18 | 20.68154 | -76.42995 | 2398 ft | 121 kts | 71° |
| 2026-05-03 20:19 | 20.68644 | -76.42307 | 2385 ft | 120 kts | 39° |
| 2026-05-03 20:19 | 20.69292 | -76.41723 | 2392 ft | 122 kts | 41° |
| 2026-05-03 20:19 | 20.69923 | -76.41093 | 2392 ft | 125 kts | 46° |
| 2026-05-03 20:19 | 20.70485 | -76.40384 | 2384 ft | 125 kts | 52° |
| 2026-05-03 20:20 | 20.71092 | -76.39715 | 2343 ft | 127 kts | 43° |
| 2026-05-03 20:20 | 20.71718 | -76.39062 | 2144 ft | 128 kts | 46° |
| 2026-05-03 20:20 | 20.72315 | -76.38361 | 1919 ft | 125 kts | 47° |
| 2026-05-03 20:20 | 20.72902 | -76.37708 | 1660 ft | 120 kts | 44° |
| 2026-05-03 20:21 | 20.73509 | -76.37078 | 1524 ft | 123 kts | 44° |
| 2026-05-03 20:21 | 20.74117 | -76.36414 | 1355 ft | 126 kts | 45° |
| 2026-05-03 20:21 | 20.74686 | -76.35782 | 1176 ft | 112 kts | 46° |
| 2026-05-03 20:21 | 20.75232 | -76.35159 | 1003 ft | 116 kts | 46° |
| 2026-05-03 20:22 | 20.75775 | -76.34563 | 824 ft | 110 kts | 45° |
| 2026-05-03 20:22 | 20.76329 | -76.33965 | 723 ft | 116 kts | 45° |
| 2026-05-03 20:22 | 20.76911 | -76.33324 | 580 ft | 122 kts | 45° |
| 2026-05-03 20:22 | 20.77501 | -76.32677 | 425 ft | 122 kts | 46° |
| 2026-05-03 20:23 | 20.78067 | -76.32052 | 369 ft | 108 kts | 46° |
| 2026-05-03 20:23 | 20.78548 | -76.31515 | 369 ft | 76 kts | 46° |
| 2026-05-03 20:23 | 20.78782 | -76.31264 | 369 ft | 41 kts | 45° |
| 2026-05-03 20:23 | 20.78940 | -76.31064 | 369 ft | 9 kts | 70° |
| 2026-05-03 20:24 | 20.78947 | -76.30961 | 369 ft | 20 kts | 90° |
| 2026-05-03 20:24 | 20.78947 | -76.30893 | 369 ft | 0 kts | 90° |
| 2026-05-03 20:24 | 20.78945 | -76.30840 | 369 ft | 2 kts | 93° |
| 2026-05-03 20:24 | 20.78944 | -76.30824 | 369 ft | 2 kts | 92° |
| 2026-05-03 20:25 | 20.78943 | -76.30810 | 369 ft | 2 kts | 92° |
| 2026-05-03 20:25 | 20.78943 | -76.30800 | 369 ft | 2 kts | 92° |
| 2026-05-03 20:25 | 20.78942 | -76.30769 | 369 ft | 14 kts | 92° |
| 2026-05-03 20:25 | 20.78963 | -76.30701 | 369 ft | 0 kts | 24° |
| 2026-05-03 20:26 | 20.78981 | -76.30691 | 369 ft | 9 kts | 42° |
| 2026-05-03 20:26 | 20.78993 | -76.30674 | 369 ft | 0 kts | 49° |
| 2026-05-03 20:27 | 20.79013 | -76.30649 | 369 ft | 10 kts | 49° |
| 2026-05-03 20:27 | 20.79026 | -76.30630 | 369 ft | 0 kts | 81° |
| 2026-05-03 20:27 | 20.79007 | -76.30617 | 369 ft | 4 kts | 187° |
| 2026-05-03 20:27 | 20.78988 | -76.30572 | 369 ft | 4 kts | 92° |
| 2026-05-03 20:28 | 20.78988 | -76.30560 | 369 ft | 0 kts | 92° |